createdAt,value
2018-12-15T00:00:18.209Z,1004.53
2018-12-15T00:01:28.012Z,1004.54
2018-12-15T00:02:38.082Z,1004.53
2018-12-15T00:03:48.144Z,1004.56
2018-12-15T00:04:57.959Z,1004.53
2018-12-15T00:06:08.819Z,1004.52
2018-12-15T00:07:19.293Z,1004.54
2018-12-15T00:08:29.451Z,1004.55
2018-12-15T00:09:39.524Z,1004.53
2018-12-15T00:10:49.604Z,1004.54
2018-12-15T00:11:59.926Z,1004.57
2018-12-15T00:13:10.020Z,1004.6
2018-12-15T00:14:20.134Z,1004.58
2018-12-15T00:15:30.202Z,1004.56
2018-12-15T00:16:40.302Z,1004.59
2018-12-15T00:17:50.350Z,1004.59
2018-12-15T00:19:00.147Z,1004.59
2018-12-15T00:20:10.221Z,1004.57
2018-12-15T00:21:20.267Z,1004.55
2018-12-15T00:22:30.323Z,1004.57
2018-12-15T00:23:40.367Z,1004.57
2018-12-15T00:24:50.155Z,1004.56
2018-12-15T00:26:02.080Z,1004.57
2018-12-15T00:27:12.745Z,1004.57
2018-12-15T00:28:22.539Z,1004.61
2018-12-15T00:29:32.424Z,1004.63
2018-12-15T00:30:42.485Z,1004.64
2018-12-15T00:31:52.553Z,1004.64
2018-12-15T00:33:02.638Z,1004.67
2018-12-15T00:34:12.752Z,1004.67
2018-12-15T00:35:22.557Z,1004.7
2018-12-15T00:36:32.407Z,1004.62
2018-12-15T00:37:42.469Z,1004.68
2018-12-15T00:38:52.511Z,1004.71
2018-12-15T00:40:03.857Z,1004.71
2018-12-15T00:41:14.070Z,1004.68
2018-12-15T00:42:24.133Z,1004.69
2018-12-15T00:43:34.187Z,1004.74
2018-12-15T00:44:44.249Z,1004.76
2018-12-15T00:45:54.060Z,1004.73
2018-12-15T00:47:04.166Z,1004.72
2018-12-15T00:48:21.091Z,1004.76
2018-12-15T00:49:31.159Z,1004.76
2018-12-15T00:50:41.228Z,1004.76
2018-12-15T00:51:51.291Z,1004.72
2018-12-15T00:53:01.389Z,1004.76
2018-12-15T00:54:10.946Z,1004.73
2018-12-15T00:55:20.762Z,1004.78
2018-12-15T00:56:30.560Z,1004.76
2018-12-15T00:57:40.611Z,1004.8
2018-12-15T00:58:50.665Z,1004.78
2018-12-15T01:00:02.339Z,1004.78
2018-12-15T01:01:14.161Z,1004.79
2018-12-15T01:02:26.288Z,1004.77
2018-12-15T01:03:36.373Z,1004.78
2018-12-15T01:04:46.482Z,1004.82
2018-12-15T01:05:56.272Z,1004.78
2018-12-15T01:07:06.671Z,1004.84
2018-12-15T01:08:16.744Z,1004.85
2018-12-15T01:09:26.808Z,1004.83
2018-12-15T01:10:36.860Z,1004.82
2018-12-15T01:11:46.955Z,1004.8
2018-12-15T01:12:56.504Z,1004.79
2018-12-15T01:14:06.310Z,1004.78
2018-12-15T01:15:16.320Z,1004.83
2018-12-15T01:16:29.470Z,1004.79
2018-12-15T01:17:41.897Z,1004.81
2018-12-15T01:18:51.975Z,1004.82
2018-12-15T01:20:01.766Z,1004.86
2018-12-15T01:21:11.541Z,1004.84
2018-12-15T01:22:21.600Z,1004.86
2018-12-15T01:23:31.718Z,1004.88
2018-12-15T01:24:41.776Z,1004.85
2018-12-15T01:25:51.840Z,1004.84
2018-12-15T01:27:01.895Z,1004.83
2018-12-15T01:28:12.423Z,1004.81
2018-12-15T01:30:48.461Z,1004.8
2018-12-15T01:31:58.520Z,1004.81
2018-12-15T01:33:08.588Z,1004.83
2018-12-15T01:34:18.882Z,1004.84
2018-12-15T01:35:31.240Z,1004.83
2018-12-15T01:36:43.692Z,1004.77
2018-12-15T01:37:54.206Z,1004.84
2018-12-15T01:39:05.998Z,1004.78
2018-12-15T01:40:15.942Z,1004.78
2018-12-15T01:41:26.045Z,1004.77
2018-12-15T01:42:36.105Z,1004.77
2018-12-15T01:43:46.123Z,1004.76
2018-12-15T01:44:55.935Z,1004.76
2018-12-15T01:46:06.107Z,1004.76
2018-12-15T01:47:16.222Z,1004.77
2018-12-15T01:48:31.796Z,1004.72
2018-12-15T01:49:41.582Z,1004.74
2018-12-15T01:50:51.641Z,1004.77
2018-12-15T01:52:01.703Z,1004.73
2018-12-15T01:53:11.867Z,1004.71
2018-12-15T01:54:21.919Z,1004.72
2018-12-15T01:55:31.964Z,1004.71
2018-12-15T01:56:42.028Z,1004.74
2018-12-15T01:57:52.073Z,1004.7
2018-12-15T01:59:03.837Z,1004.7
2018-12-15T02:00:13.809Z,1004.7
2018-12-15T02:01:23.603Z,1004.73
2018-12-15T02:02:33.647Z,1004.7
2018-12-15T02:03:43.700Z,1004.7
2018-12-15T02:04:53.752Z,1004.67
2018-12-15T02:06:03.827Z,1004.67
2018-12-15T02:07:13.428Z,1004.66
2018-12-15T02:08:23.549Z,1004.68
2018-12-15T02:09:33.836Z,1004.66
2018-12-15T02:10:43.892Z,1004.68
2018-12-15T02:11:53.714Z,1004.7
2018-12-15T02:13:03.758Z,1004.63
2018-12-15T02:14:13.925Z,1004.66
2018-12-15T02:15:23.980Z,1004.67
2018-12-15T02:16:34.086Z,1004.61
2018-12-15T02:17:44.145Z,1004.58
2018-12-15T02:18:54.210Z,1004.6
2018-12-15T02:20:04.039Z,1004.57
2018-12-15T02:21:14.336Z,1004.58
2018-12-15T02:22:24.452Z,1004.55
2018-12-15T02:23:34.259Z,1004.56
2018-12-15T02:24:44.398Z,1004.51
2018-12-15T02:25:54.204Z,1004.54
2018-12-15T02:27:04.256Z,1004.53
2018-12-15T02:28:14.344Z,1004.53
2018-12-15T02:29:24.423Z,1004.54
2018-12-15T02:30:34.617Z,1004.51
2018-12-15T02:31:44.682Z,1004.52
2018-12-15T02:32:54.756Z,1004.51
2018-12-15T02:34:05.198Z,1004.51
2018-12-15T02:35:15.317Z,1004.49
2018-12-15T02:36:25.380Z,1004.51
2018-12-15T02:37:35.032Z,1004.44
2018-12-15T02:38:45.327Z,1004.51
2018-12-15T02:39:55.635Z,1004.53
2018-12-15T02:41:05.452Z,1004.47
2018-12-15T02:42:15.579Z,1004.47
2018-12-15T02:43:25.653Z,1004.48
2018-12-15T02:44:35.721Z,1004.51
2018-12-15T02:45:45.778Z,1004.5
2018-12-15T02:46:55.835Z,1004.5
2018-12-15T02:48:05.934Z,1004.48
2018-12-15T02:49:15.479Z,1004.46
2018-12-15T02:50:25.606Z,1004.47
2018-12-15T02:51:35.143Z,1004.42
2018-12-15T02:52:45.187Z,1004.44
2018-12-15T02:53:54.985Z,1004.44
2018-12-15T02:55:05.064Z,1004.43
2018-12-15T02:56:15.138Z,1004.45
2018-12-15T02:57:25.257Z,1004.46
2018-12-15T02:58:35.332Z,1004.48
2018-12-15T02:59:45.151Z,1004.43
2018-12-15T03:00:55.268Z,1004.44
2018-12-15T03:02:05.315Z,1004.47
2018-12-15T03:03:15.438Z,1004.44
2018-12-15T03:34:53.597Z,1004.43
2018-12-15T03:36:03.634Z,1004.46
2018-12-15T03:37:13.691Z,1004.44
2018-12-15T03:38:23.748Z,1004.42
2018-12-15T03:39:34.015Z,1004.41
2018-12-15T03:40:44.265Z,1004.4
2018-12-15T03:41:54.454Z,1004.43
2018-12-15T03:43:04.579Z,1004.44
2018-12-15T03:44:14.395Z,1004.44
2018-12-15T03:45:24.204Z,1004.39
2018-12-15T03:46:34.255Z,1004.39
2018-12-15T03:47:44.066Z,1004.36
2018-12-15T03:49:03.607Z,1004.34
2018-12-15T03:50:13.806Z,1004.34
2018-12-15T03:51:23.365Z,1004.34
2018-12-15T03:52:33.411Z,1004.34
2018-12-15T03:53:44.084Z,1004.33
2018-12-15T03:54:54.600Z,1004.34
2018-12-15T03:56:04.402Z,1004.33
2018-12-15T03:57:14.481Z,1004.35
2018-12-15T03:58:24.821Z,1004.32
2018-12-15T03:59:34.880Z,1004.32
2018-12-15T04:00:44.940Z,1004.36
2018-12-15T04:01:54.743Z,1004.31
2018-12-15T04:03:04.829Z,1004.39
2018-12-15T04:04:14.688Z,1004.32
2018-12-15T04:05:24.515Z,1004.34
2018-12-15T04:06:34.333Z,1004.33
2018-12-15T04:07:44.421Z,1004.37
2018-12-15T04:08:54.216Z,1004.37
2018-12-15T04:10:06.226Z,1004.35
2018-12-15T04:11:16.291Z,1004.36
2018-12-15T04:12:26.365Z,1004.34
2018-12-15T04:13:36.423Z,1004.36
2018-12-15T04:14:46.481Z,1004.36
2018-12-15T04:15:56.606Z,1004.4
2018-12-15T04:17:06.681Z,1004.39
2018-12-15T04:18:16.746Z,1004.38
2018-12-15T04:19:26.798Z,1004.35
2018-12-15T04:20:36.968Z,1004.36
2018-12-15T04:21:47.085Z,1004.33
2018-12-15T04:22:57.175Z,1004.34
2018-12-15T04:24:07.243Z,1004.36
2018-12-15T04:25:17.326Z,1004.35
2018-12-15T04:26:27.137Z,1004.36
2018-12-15T04:27:37.233Z,1004.36
2018-12-15T04:28:47.503Z,1004.35
2018-12-15T04:29:57.627Z,1004.35
2018-12-15T04:31:07.703Z,1004.34
2018-12-15T04:32:17.776Z,1004.34
2018-12-15T04:33:28.967Z,1004.35
2018-12-15T04:34:38.766Z,1004.33
2018-12-15T04:35:48.344Z,1004.33
2018-12-15T04:36:58.409Z,1004.36
2018-12-15T04:38:09.211Z,1004.39
2018-12-15T04:39:19.012Z,1004.37
2018-12-15T04:40:28.663Z,1004.38
2018-12-15T04:41:38.899Z,1004.39
2018-12-15T04:42:48.716Z,1004.41
2018-12-15T04:43:58.780Z,1004.35
2018-12-15T04:45:08.875Z,1004.35
2018-12-15T04:46:19.306Z,1004.36
2018-12-15T04:47:29.399Z,1004.37
2018-12-15T04:48:39.479Z,1004.37
2018-12-15T04:49:49.302Z,1004.4
2018-12-15T04:50:59.413Z,1004.42
2018-12-15T04:52:09.463Z,1004.39
2018-12-15T04:53:19.270Z,1004.38
2018-12-15T04:54:29.349Z,1004.43
2018-12-15T04:55:39.691Z,1004.37
2018-12-15T04:56:49.254Z,1004.42
2018-12-15T04:57:59.116Z,1004.4
2018-12-15T04:59:09.177Z,1004.4
2018-12-15T05:00:19.048Z,1004.42
2018-12-15T05:01:29.107Z,1004.37
2018-12-15T05:02:43.733Z,1004.41
2018-12-15T05:03:54.052Z,1004.41
2018-12-15T05:05:03.870Z,1004.4
2018-12-15T05:06:13.918Z,1004.41
2018-12-15T05:07:23.981Z,1004.42
2018-12-15T05:08:34.090Z,1004.41
2018-12-15T05:09:44.139Z,1004.45
2018-12-15T05:10:54.170Z,1004.42
2018-12-15T05:12:03.976Z,1004.41
2018-12-15T05:13:14.043Z,1004.46
2018-12-15T05:14:24.175Z,1004.4
2018-12-15T05:15:34.226Z,1004.45
2018-12-15T05:16:44.040Z,1004.44
2018-12-15T05:17:54.108Z,1004.41
2018-12-15T05:19:03.914Z,1004.45
2018-12-15T05:20:14.094Z,1004.42
2018-12-15T05:21:24.146Z,1004.4
2018-12-15T05:22:34.207Z,1004.38
2018-12-15T05:23:44.273Z,1004.39
2018-12-15T05:24:54.317Z,1004.42
2018-12-15T05:26:04.422Z,1004.41
2018-12-15T05:27:14.222Z,1004.39
2018-12-15T05:28:24.307Z,1004.41
2018-12-15T05:29:34.706Z,1004.36
2018-12-15T05:30:44.757Z,1004.43
2018-12-15T05:31:54.543Z,1004.41
2018-12-15T05:33:05.145Z,1004.42
2018-12-15T05:34:15.528Z,1004.46
2018-12-15T05:35:25.646Z,1004.44
2018-12-15T05:36:35.477Z,1004.42
2018-12-15T05:37:45.483Z,1004.47
2018-12-15T05:38:55.551Z,1004.43
2018-12-15T05:40:08.657Z,1004.43
2018-12-15T05:41:18.728Z,1004.44
2018-12-15T05:42:28.791Z,1004.45
2018-12-15T05:43:38.843Z,1004.42
2018-12-15T05:44:48.890Z,1004.45
2018-12-15T05:45:58.686Z,1004.45
2018-12-15T05:47:08.500Z,1004.48
2018-12-15T05:48:24.908Z,1004.52
2018-12-15T05:49:35.177Z,1004.49
2018-12-15T05:50:45.225Z,1004.53
2018-12-15T05:51:55.306Z,1004.51
2018-12-15T05:53:05.360Z,1004.52
2018-12-15T05:54:15.409Z,1004.57
2018-12-15T05:55:25.608Z,1004.55
2018-12-15T05:56:35.669Z,1004.48
2018-12-15T05:57:45.769Z,1004.46
2018-12-15T05:58:55.837Z,1004.46
2018-12-15T06:00:05.897Z,1004.53
2018-12-15T06:01:15.951Z,1004.48
2018-12-15T06:02:26.029Z,1004.5
2018-12-15T06:03:36.091Z,1004.5
2018-12-15T06:04:46.159Z,1004.5
2018-12-15T06:05:55.971Z,1004.51
2018-12-15T06:07:06.101Z,1004.53
2018-12-15T06:08:15.904Z,1004.44
2018-12-15T06:09:26.200Z,1004.49
2018-12-15T06:10:36.262Z,1004.51
2018-12-15T06:11:46.104Z,1004.5
2018-12-15T06:12:56.164Z,1004.49
2018-12-15T06:14:05.981Z,1004.48
2018-12-15T06:15:15.785Z,1004.53
2018-12-15T06:16:25.573Z,1004.44
2018-12-15T06:17:35.618Z,1004.44
2018-12-15T06:18:45.673Z,1004.52
2018-12-15T06:19:55.843Z,1004.5
2018-12-15T06:21:05.910Z,1004.45
2018-12-15T06:22:15.955Z,1004.47
2018-12-15T06:23:26.012Z,1004.47
2018-12-15T06:24:36.435Z,1004.46
2018-12-15T06:25:46.475Z,1004.46
2018-12-15T06:26:56.542Z,1004.43
2018-12-15T06:28:06.643Z,1004.45
2018-12-15T06:29:16.709Z,1004.46
2018-12-15T06:30:26.559Z,1004.48
2018-12-15T06:31:36.359Z,1004.48
2018-12-15T06:32:46.427Z,1004.51
2018-12-15T06:33:56.486Z,1004.54
2018-12-15T06:35:06.553Z,1004.61
2018-12-15T06:36:16.698Z,1004.58
2018-12-15T06:37:26.754Z,1004.57
2018-12-15T06:38:36.809Z,1004.59
2018-12-15T06:39:46.851Z,1004.56
2018-12-15T06:40:56.642Z,1004.63
2018-12-15T06:42:06.822Z,1004.62
2018-12-15T06:43:16.882Z,1004.62
2018-12-15T06:44:26.951Z,1004.58
2018-12-15T06:45:37.029Z,1004.61
2018-12-15T06:46:46.832Z,1004.64
2018-12-15T06:47:56.673Z,1004.65
2018-12-15T06:49:08.248Z,1004.66
2018-12-15T06:50:18.351Z,1004.68
2018-12-15T06:51:28.164Z,1004.68
2018-12-15T06:52:37.980Z,1004.65
2018-12-15T06:53:48.107Z,1004.63
2018-12-15T06:54:58.163Z,1004.62
2018-12-15T06:56:09.123Z,1004.67
2018-12-15T06:57:19.207Z,1004.65
2018-12-15T06:58:28.744Z,1004.7
2018-12-15T06:59:38.791Z,1004.65
2018-12-15T07:00:48.858Z,1004.67
2018-12-15T07:01:58.933Z,1004.63
2018-12-15T07:03:08.986Z,1004.67
2018-12-15T07:04:19.088Z,1004.63
2018-12-15T07:05:29.218Z,1004.66
2018-12-15T07:06:39.265Z,1004.7
2018-12-15T07:07:49.796Z,1004.66
2018-12-15T07:08:59.593Z,1004.7
2018-12-15T07:10:09.405Z,1004.67
2018-12-15T07:11:19.256Z,1004.68
2018-12-15T07:12:29.367Z,1004.62
2018-12-15T07:13:39.416Z,1004.64
2018-12-15T07:14:49.231Z,1004.68
2018-12-15T07:15:59.029Z,1004.64
2018-12-15T07:17:09.092Z,1004.66
2018-12-15T07:18:19.240Z,1004.61
2018-12-15T07:19:29.298Z,1004.62
2018-12-15T07:20:39.365Z,1004.67
2018-12-15T07:21:49.417Z,1004.66
2018-12-15T07:22:59.500Z,1004.65
2018-12-15T07:24:09.576Z,1004.66
2018-12-15T07:25:19.632Z,1004.67
2018-12-15T07:26:29.977Z,1004.66
2018-12-15T07:27:40.039Z,1004.72
2018-12-15T07:28:50.228Z,1004.67
2018-12-15T07:30:03.564Z,1004.73
2018-12-15T07:31:13.648Z,1004.63
2018-12-15T07:32:23.713Z,1004.63
2018-12-15T07:33:33.519Z,1004.63
2018-12-15T07:34:43.376Z,1004.62
2018-12-15T07:35:53.377Z,1004.6
2018-12-15T07:37:04.253Z,1004.58
2018-12-15T07:38:14.116Z,1004.64
2018-12-15T07:39:24.188Z,1004.65
2018-12-15T07:40:34.291Z,1004.7
2018-12-15T07:41:44.360Z,1004.78
2018-12-15T07:42:54.411Z,1004.67
2018-12-15T07:44:04.466Z,1004.69
2018-12-15T07:45:14.737Z,1004.71
2018-12-15T07:46:24.825Z,1004.7
2018-12-15T07:47:35.334Z,1004.68
2018-12-15T07:48:51.151Z,1004.69
2018-12-15T07:50:01.423Z,1004.67
2018-12-15T07:51:11.534Z,1004.67
2018-12-15T07:52:21.666Z,1004.63
2018-12-15T07:53:31.468Z,1004.67
2018-12-15T07:54:41.549Z,1004.68
2018-12-15T07:55:51.603Z,1004.64
2018-12-15T07:57:01.665Z,1004.61
2018-12-15T07:58:11.781Z,1004.66
2018-12-15T07:59:21.843Z,1004.65
2018-12-15T08:00:31.914Z,1004.71
2018-12-15T08:01:42.405Z,1004.71
2018-12-15T08:02:52.211Z,1004.74
2018-12-15T08:04:02.145Z,1004.71
2018-12-15T08:05:12.201Z,1004.72
2018-12-15T08:06:22.285Z,1004.72
2018-12-15T08:07:32.352Z,1004.75
2018-12-15T08:08:42.420Z,1004.77
2018-12-15T08:09:52.539Z,1004.75
2018-12-15T08:11:03.617Z,1004.76
2018-12-15T08:12:13.446Z,1004.74
2018-12-15T08:13:23.044Z,1004.74
2018-12-15T08:14:33.107Z,1004.75
2018-12-15T08:15:43.681Z,1004.74
2018-12-15T08:16:53.760Z,1004.71
2018-12-15T08:18:04.272Z,1004.76
2018-12-15T08:19:13.686Z,1004.76
2018-12-15T08:20:23.519Z,1004.79
2018-12-15T08:21:33.331Z,1004.73
2018-12-15T08:22:43.385Z,1004.74
2018-12-15T08:23:53.188Z,1004.78
2018-12-15T08:25:03.006Z,1004.75
2018-12-15T08:26:12.816Z,1004.77
2018-12-15T08:27:23.325Z,1004.84
2018-12-15T08:28:33.400Z,1004.78
2018-12-15T08:29:43.471Z,1004.78
2018-12-15T08:30:53.516Z,1004.81
2018-12-15T08:32:03.614Z,1004.78
2018-12-15T08:33:13.743Z,1004.82
2018-12-15T08:34:23.556Z,1004.83
2018-12-15T08:35:33.620Z,1004.87
2018-12-15T08:36:43.184Z,1004.89
2018-12-15T08:37:53.465Z,1004.76
2018-12-15T08:39:05.537Z,1004.83
2018-12-15T08:40:15.599Z,1004.77
2018-12-15T08:41:25.415Z,1004.78
2018-12-15T08:42:35.238Z,1004.78
2018-12-15T08:43:45.046Z,1004.76
2018-12-15T08:44:55.126Z,1004.78
2018-12-15T08:46:05.447Z,1004.83
2018-12-15T08:47:15.309Z,1004.8
2018-12-15T08:48:25.391Z,1004.84
2018-12-15T08:49:35.460Z,1004.8
2018-12-15T08:50:45.256Z,1004.86
2018-12-15T08:51:55.551Z,1004.85
2018-12-15T08:53:05.962Z,1004.86
2018-12-15T08:54:15.841Z,1004.9
2018-12-15T08:55:25.650Z,1004.95
2018-12-15T08:56:35.776Z,1004.88
2018-12-15T08:57:45.867Z,1004.87
2018-12-15T08:58:55.932Z,1004.82
2018-12-15T09:00:06.036Z,1004.86
2018-12-15T09:01:15.851Z,1004.91
2018-12-15T09:02:25.988Z,1004.87
2018-12-15T09:03:36.064Z,1004.89
2018-12-15T09:04:46.113Z,1004.92
2018-12-15T09:05:56.197Z,1004.84
2018-12-15T09:07:06.265Z,1004.9
2018-12-15T09:08:17.397Z,1004.86
2018-12-15T09:09:27.559Z,1004.92
2018-12-15T09:10:37.630Z,1004.89
2018-12-15T09:11:47.442Z,1004.86
2018-12-15T09:12:57.758Z,1004.88
2018-12-15T09:14:07.844Z,1004.91
2018-12-15T09:15:17.903Z,1004.85
2018-12-15T09:16:27.989Z,1004.87
2018-12-15T09:17:38.137Z,1004.85
2018-12-15T09:18:48.184Z,1004.81
2018-12-15T09:19:58.232Z,1004.81
2018-12-15T09:21:08.283Z,1004.82
2018-12-15T09:22:18.230Z,1004.84
2018-12-15T09:23:28.038Z,1004.76
2018-12-15T09:24:37.853Z,1004.79
2018-12-15T09:25:47.977Z,1004.75
2018-12-15T09:26:57.820Z,1004.81
2018-12-15T09:28:09.009Z,1004.77
2018-12-15T09:29:19.090Z,1004.79
2018-12-15T09:30:29.186Z,1004.76
2018-12-15T09:31:39.276Z,1004.74
2018-12-15T09:32:49.353Z,1004.73
2018-12-15T09:33:59.423Z,1004.72
2018-12-15T09:35:09.506Z,1004.66
2018-12-15T09:36:19.566Z,1004.67
2018-12-15T09:37:29.628Z,1004.69
2018-12-15T09:38:39.690Z,1004.68
2018-12-15T09:39:49.763Z,1004.68
2018-12-15T09:40:59.867Z,1004.64
2018-12-15T09:42:09.971Z,1004.64
2018-12-15T09:43:20.067Z,1004.65
2018-12-15T09:44:29.905Z,1004.59
2018-12-15T09:45:39.732Z,1004.65
2018-12-15T09:46:49.828Z,1004.58
2018-12-15T09:48:00.116Z,1004.57
2018-12-15T09:49:10.202Z,1004.56
2018-12-15T09:50:25.595Z,1004.63
2018-12-15T09:51:35.967Z,1004.53
2018-12-15T09:52:46.044Z,1004.58
2018-12-15T09:53:56.129Z,1004.53
2018-12-15T09:55:07.589Z,1004.55
2018-12-15T09:56:17.631Z,1004.53
2018-12-15T09:57:27.500Z,1004.45
2018-12-15T09:58:37.554Z,1004.44
2018-12-15T09:59:47.701Z,1004.51
2018-12-15T10:00:57.794Z,1004.44
2018-12-15T10:02:08.037Z,1004.44
2018-12-15T10:03:18.188Z,1004.42
2018-12-15T10:04:28.256Z,1004.41
2018-12-15T10:05:38.341Z,1004.42
2018-12-15T10:06:48.421Z,1004.44
2018-12-15T10:07:58.829Z,1004.4
2018-12-15T10:09:11.174Z,1004.47
2018-12-15T10:10:21.033Z,1004.4
2018-12-15T10:11:31.123Z,1004.35
2018-12-15T10:12:41.187Z,1004.36
2018-12-15T10:13:51.269Z,1004.45
2018-12-15T10:15:02.948Z,1004.37
2018-12-15T10:16:13.006Z,1004.41
2018-12-15T10:17:22.847Z,1004.34
2018-12-15T10:18:32.908Z,1004.34
2018-12-15T10:19:42.986Z,1004.31
2018-12-15T10:20:53.159Z,1004.29
2018-12-15T10:22:03.223Z,1004.28
2018-12-15T10:23:12.762Z,1004.28
2018-12-15T10:24:22.839Z,1004.33
2018-12-15T10:25:32.946Z,1004.29
2018-12-15T10:26:42.759Z,1004.3
2018-12-15T10:27:52.581Z,1004.28
2018-12-15T10:29:02.687Z,1004.27
2018-12-15T10:30:12.747Z,1004.27
2018-12-15T10:31:22.816Z,1004.24
2018-12-15T10:32:33.029Z,1004.22
2018-12-15T10:33:43.094Z,1004.21
2018-12-15T10:34:53.174Z,1004.19
2018-12-15T10:36:03.250Z,1004.21
2018-12-15T10:37:13.327Z,1004.18
2018-12-15T10:38:23.495Z,1004.19
2018-12-15T10:39:33.629Z,1004.18
2018-12-15T10:40:43.444Z,1004.17
2018-12-15T10:41:53.260Z,1004.18
2018-12-15T10:43:03.393Z,1004.18
2018-12-15T10:44:13.528Z,1004.13
2018-12-15T10:45:23.641Z,1004.15
2018-12-15T10:46:33.704Z,1004.16
2018-12-15T10:47:43.766Z,1004.18
2018-12-15T10:48:54.030Z,1004.2
2018-12-15T10:50:04.128Z,1004.14
2018-12-15T10:51:14.183Z,1004.14
2018-12-15T10:52:24.094Z,1004.17
2018-12-15T10:53:34.161Z,1004.21
2018-12-15T10:54:44.228Z,1004.12
2018-12-15T10:55:54.360Z,1004.11
2018-12-15T10:57:04.442Z,1004.11
2018-12-15T10:58:14.539Z,1004.09
2018-12-15T10:59:24.885Z,1004.06
2018-12-15T11:00:34.972Z,1004.07
2018-12-15T11:01:45.048Z,1004.03
2018-12-15T11:02:55.124Z,1004.08
2018-12-15T11:04:05.226Z,1004.02
2018-12-15T11:05:15.302Z,1003.95
2018-12-15T11:06:25.396Z,1003.96
2018-12-15T11:07:35.473Z,1003.95
2018-12-15T11:08:45.541Z,1003.93
2018-12-15T11:09:55.629Z,1003.9
2018-12-15T11:11:08.407Z,1003.92
2018-12-15T11:12:18.216Z,1003.89
2018-12-15T11:13:28.278Z,1003.83
2018-12-15T11:14:38.357Z,1003.85
2018-12-15T11:15:48.450Z,1003.84
2018-12-15T11:16:58.261Z,1003.85
2018-12-15T11:18:10.981Z,1003.83
2018-12-15T11:19:21.117Z,1003.81
2018-12-15T11:20:37.754Z,1003.83
2018-12-15T11:21:47.835Z,1003.84
2018-12-15T11:22:57.632Z,1003.81
2018-12-15T11:24:07.452Z,1003.84
2018-12-15T11:25:17.578Z,1003.85
2018-12-15T11:26:27.651Z,1003.85
2018-12-15T11:27:37.705Z,1003.72
2018-12-15T11:28:49.008Z,1003.82
2018-12-15T11:29:59.098Z,1003.82
2018-12-15T11:31:08.912Z,1003.83
2018-12-15T11:32:19.449Z,1003.78
2018-12-15T11:33:29.263Z,1003.87
2018-12-15T11:34:39.378Z,1003.83
2018-12-15T11:35:49.438Z,1003.81
2018-12-15T11:36:59.505Z,1003.8
2018-12-15T11:38:09.295Z,1003.83
2018-12-15T11:39:19.347Z,1003.76
2018-12-15T11:40:29.422Z,1003.8
2018-12-15T11:41:39.507Z,1003.83
2018-12-15T11:42:49.342Z,1003.78
2018-12-15T11:43:59.422Z,1003.81
2018-12-15T11:45:08.964Z,1003.78
2018-12-15T11:46:19.085Z,1003.81
2018-12-15T11:47:29.180Z,1003.85
2018-12-15T11:48:39.236Z,1003.87
2018-12-15T11:49:49.368Z,1003.82
2018-12-15T11:50:59.451Z,1003.82
2018-12-15T11:52:09.647Z,1003.81
2018-12-15T11:53:19.740Z,1003.79
2018-12-15T11:54:29.856Z,1003.86
2018-12-15T11:55:40.193Z,1003.85
2018-12-15T11:56:50.051Z,1003.8
2018-12-15T11:58:03.513Z,1003.8
2018-12-15T11:59:13.599Z,1003.85
2018-12-15T12:00:23.427Z,1003.83
2018-12-15T12:01:33.509Z,1003.83
2018-12-15T12:02:43.593Z,1003.79
2018-12-15T12:03:53.653Z,1003.76
2018-12-15T12:05:05.334Z,1003.78
2018-12-15T12:06:15.402Z,1003.81
2018-12-15T12:07:25.500Z,1003.8
2018-12-15T12:08:35.788Z,1003.82
2018-12-15T12:09:46.147Z,1003.8
2018-12-15T12:10:56.289Z,1003.85
2018-12-15T12:12:06.708Z,1003.85
2018-12-15T12:13:16.522Z,1003.85
2018-12-15T12:14:26.349Z,1003.78
2018-12-15T12:15:36.434Z,1003.87
2018-12-15T12:16:46.263Z,1003.83
2018-12-15T12:17:56.629Z,1003.87
2018-12-15T12:19:07.607Z,1003.87
2018-12-15T12:20:17.886Z,1003.86
2018-12-15T12:21:27.744Z,1003.81
2018-12-15T12:22:37.558Z,1003.83
2018-12-15T12:23:47.635Z,1003.82
2018-12-15T12:24:57.689Z,1003.83
2018-12-15T12:26:07.781Z,1003.79
2018-12-15T12:27:17.597Z,1003.76
2018-12-15T12:28:27.687Z,1003.81
2018-12-15T12:29:37.769Z,1003.82
2018-12-15T12:30:47.615Z,1003.77
2018-12-15T12:31:57.661Z,1003.83
2018-12-15T12:33:07.581Z,1003.8
2018-12-15T12:34:17.694Z,1003.85
2018-12-15T12:35:27.782Z,1003.84
2018-12-15T12:36:37.836Z,1003.81
2018-12-15T12:37:47.905Z,1003.81
2018-12-15T12:38:58.219Z,1003.7
2018-12-15T12:40:11.278Z,1003.74
2018-12-15T12:41:21.339Z,1003.69
2018-12-15T12:42:31.410Z,1003.73
2018-12-15T12:43:41.488Z,1003.74
2018-12-15T12:44:51.318Z,1003.71
2018-12-15T12:46:01.388Z,1003.7
2018-12-15T12:47:11.483Z,1003.8
2018-12-15T12:48:21.569Z,1003.77
2018-12-15T12:49:31.663Z,1003.76
2018-12-15T12:50:41.525Z,1003.77
2018-12-15T12:51:51.611Z,1003.76
2018-12-15T12:53:01.738Z,1003.72
2018-12-15T12:54:11.835Z,1003.68
2018-12-15T12:55:21.916Z,1003.75
2018-12-15T12:56:32.227Z,1003.76
2018-12-15T12:57:42.294Z,1003.76
2018-12-15T12:58:52.349Z,1003.75
2018-12-15T13:00:04.123Z,1003.78
2018-12-15T13:01:14.193Z,1003.83
2018-12-15T13:02:24.530Z,1003.78
2018-12-15T13:03:34.642Z,1003.76
2018-12-15T13:04:44.457Z,1003.76
2018-12-15T13:05:54.529Z,1003.79
2018-12-15T13:07:04.609Z,1003.8
2018-12-15T13:08:14.730Z,1003.76
2018-12-15T13:09:24.830Z,1003.83
2018-12-15T13:10:34.907Z,1003.82
2018-12-15T13:11:44.713Z,1003.82
2018-12-15T13:12:54.786Z,1003.77
2018-12-15T13:14:04.353Z,1003.77
2018-12-15T13:15:14.453Z,1003.73
2018-12-15T13:16:24.836Z,1003.76
2018-12-15T13:17:34.659Z,1003.79
2018-12-15T13:18:44.739Z,1003.81
2018-12-15T13:19:54.893Z,1003.78
2018-12-15T13:21:11.274Z,1003.78
2018-12-15T13:22:21.092Z,1003.73
2018-12-15T13:23:31.220Z,1003.77
2018-12-15T13:24:41.042Z,1003.79
2018-12-15T13:25:51.161Z,1003.79
2018-12-15T13:27:01.245Z,1003.76
2018-12-15T13:28:11.073Z,1003.71
2018-12-15T13:29:21.165Z,1003.76
2018-12-15T13:30:31.351Z,1003.78
2018-12-15T13:31:42.567Z,1003.85
2018-12-15T13:32:52.629Z,1003.79
2018-12-15T13:34:03.047Z,1003.81
2018-12-15T13:35:13.138Z,1003.82
2018-12-15T13:36:23.221Z,1003.86
2018-12-15T13:37:33.271Z,1003.79
2018-12-15T13:38:43.063Z,1003.85
2018-12-15T13:39:52.881Z,1003.81
2018-12-15T13:41:03.602Z,1003.85
2018-12-15T13:42:13.416Z,1003.88
2018-12-15T13:43:23.493Z,1003.81
2018-12-15T13:44:33.557Z,1003.84
2018-12-15T13:45:43.652Z,1003.82
2018-12-15T13:46:53.460Z,1003.81
2018-12-15T13:48:04.479Z,1003.73
2018-12-15T13:49:14.289Z,1003.75
2018-12-15T13:50:24.377Z,1003.77
2018-12-15T13:51:34.442Z,1003.72
2018-12-15T13:52:44.247Z,1003.77
2018-12-15T13:53:54.332Z,1003.82
2018-12-15T13:55:04.466Z,1003.8
2018-12-15T13:56:14.529Z,1003.83
2018-12-15T13:57:24.356Z,1003.74
2018-12-15T13:58:33.901Z,1003.76
2018-12-15T13:59:43.971Z,1003.76
2018-12-15T14:00:54.106Z,1003.82
2018-12-15T14:02:04.197Z,1003.7
2018-12-15T14:03:14.277Z,1003.79
2018-12-15T14:04:24.353Z,1003.74
2018-12-15T14:05:34.442Z,1003.81
2018-12-15T14:06:44.362Z,1003.74
2018-12-15T14:07:54.478Z,1003.85
2018-12-15T14:09:04.681Z,1003.85
2018-12-15T14:10:14.771Z,1003.84
2018-12-15T14:11:24.819Z,1003.84
2018-12-15T14:12:34.427Z,1003.76
2018-12-15T14:13:45.624Z,1003.78
2018-12-15T14:14:55.697Z,1003.82
2018-12-15T14:16:05.763Z,1003.78
2018-12-15T14:17:15.869Z,1003.77
2018-12-15T14:18:26.016Z,1003.77
2018-12-15T14:19:36.079Z,1003.8
2018-12-15T14:20:46.355Z,1003.78
2018-12-15T14:21:56.421Z,1003.75
2018-12-15T14:23:06.623Z,1003.72
2018-12-15T14:24:16.445Z,1003.74
2018-12-15T14:25:26.621Z,1003.75
2018-12-15T14:26:36.701Z,1003.78
2018-12-15T14:27:46.516Z,1003.77
2018-12-15T14:28:56.367Z,1003.79
2018-12-15T14:30:06.205Z,1003.78
2018-12-15T14:31:16.026Z,1003.83
2018-12-15T14:32:25.852Z,1003.84
2018-12-15T14:33:35.941Z,1003.85
2018-12-15T14:34:46.209Z,1003.83
2018-12-15T14:35:56.311Z,1003.87
2018-12-15T14:37:06.389Z,1003.81
2018-12-15T14:38:16.449Z,1003.82
2018-12-15T14:39:26.543Z,1003.85
2018-12-15T14:40:36.622Z,1003.86
2018-12-15T14:41:46.931Z,1003.83
2018-12-15T14:42:57.013Z,1003.86